createdAt,value
2023-04-19T00:02:24.000Z,11.04
2023-04-19T00:04:55.931Z,11.05
2023-04-19T00:07:25.781Z,10.92
2023-04-19T00:09:55.556Z,11.15
2023-04-19T00:12:27.990Z,10.91
2023-04-19T00:14:57.810Z,10.90
2023-04-19T00:17:28.060Z,10.85
2023-04-19T00:19:57.887Z,10.64
2023-04-19T00:22:27.719Z,10.64
2023-04-19T00:24:57.474Z,10.66
2023-04-19T00:27:29.838Z,10.74
2023-04-19T00:30:00.246Z,10.55
2023-04-19T00:32:30.058Z,10.54
2023-04-19T00:35:00.792Z,10.62
2023-04-19T00:37:30.734Z,10.54
2023-04-19T00:40:00.516Z,10.71
2023-04-19T00:42:32.918Z,10.78
2023-04-19T00:45:02.708Z,10.76
2023-04-19T00:47:33.585Z,10.62
2023-04-19T00:50:03.491Z,10.67
2023-04-19T00:52:33.520Z,10.51
2023-04-19T00:55:04.353Z,10.69
2023-04-19T00:57:36.770Z,10.62
2023-04-19T01:00:09.955Z,10.55
2023-04-19T01:02:39.929Z,10.50
2023-04-19T01:05:10.590Z,10.44
2023-04-19T01:07:42.873Z,10.43
2023-04-19T01:10:13.338Z,10.55
2023-04-19T01:12:47.173Z,10.34
2023-04-19T01:15:16.917Z,10.40
2023-04-19T01:17:46.904Z,10.41
2023-04-19T01:20:16.693Z,10.58
2023-04-19T01:22:49.044Z,10.43
2023-04-19T01:25:18.826Z,10.31
2023-04-19T01:27:48.711Z,10.29
2023-04-19T01:30:18.741Z,10.28
2023-04-19T01:32:48.601Z,10.21
2023-04-19T01:35:18.548Z,10.18
2023-04-19T01:37:50.970Z,10.19
2023-04-19T01:40:21.489Z,10.28
2023-04-19T01:42:51.253Z,10.09
2023-04-19T01:45:21.009Z,9.97
2023-04-19T01:47:54.193Z,9.76
2023-04-19T01:50:24.061Z,9.63
2023-04-19T01:52:56.446Z,9.42
2023-04-19T01:55:26.416Z,9.59
2023-04-19T01:57:56.241Z,9.57
2023-04-19T02:00:26.666Z,9.52
2023-04-19T02:02:56.596Z,9.44
2023-04-19T02:05:26.452Z,9.28
2023-04-19T02:08:01.503Z,8.99
2023-04-19T02:10:33.880Z,8.94
2023-04-19T02:13:03.669Z,8.71
2023-04-19T02:15:33.417Z,8.71
2023-04-19T02:18:06.700Z,8.69
2023-04-19T02:20:36.771Z,8.54
2023-04-19T02:23:09.544Z,8.46
2023-04-19T02:25:39.309Z,8.42
2023-04-19T02:28:09.927Z,8.35
2023-04-19T02:30:40.697Z,8.33
2023-04-19T02:33:10.545Z,8.38
2023-04-19T02:35:40.529Z,8.40
2023-04-19T02:38:12.912Z,8.24
2023-04-19T02:40:42.678Z,8.08
2023-04-19T02:43:12.450Z,8.12
2023-04-19T02:45:42.263Z,8.24
2023-04-19T02:48:12.094Z,8.21
2023-04-19T02:50:41.919Z,8.26
2023-04-19T02:53:14.429Z,8.22
2023-04-19T02:55:44.434Z,8.13
2023-04-19T02:58:19.196Z,7.98
2023-04-19T03:01:09.011Z,8.06
2023-04-19T03:03:38.909Z,8.18
2023-04-19T03:06:09.234Z,8.09
2023-04-19T03:08:42.459Z,7.93
2023-04-19T03:11:12.368Z,7.85
2023-04-19T03:13:42.551Z,7.82
2023-04-19T03:16:13.299Z,7.80
2023-04-19T03:18:45.290Z,7.70
2023-04-19T03:21:15.960Z,7.72
2023-04-19T03:23:54.583Z,7.85
2023-04-19T03:26:25.741Z,7.54
2023-04-19T03:28:57.356Z,7.55
2023-04-19T03:31:36.668Z,7.39
2023-04-19T03:34:07.112Z,7.26
2023-04-19T03:36:43.156Z,7.21
2023-04-19T03:39:15.660Z,7.10
2023-04-19T03:41:48.936Z,6.98
2023-04-19T03:44:28.716Z,6.99
2023-04-19T03:46:58.481Z,6.92
2023-04-19T03:49:32.089Z,6.85
2023-04-19T03:52:08.474Z,6.81
2023-04-19T03:54:40.907Z,6.76
2023-04-19T03:57:19.673Z,6.74
2023-04-19T03:59:50.553Z,6.62
2023-04-19T04:02:21.924Z,6.61
2023-04-19T04:04:56.925Z,6.73
2023-04-19T04:07:27.391Z,6.72
2023-04-19T04:09:59.794Z,6.70
2023-04-19T04:12:29.545Z,6.49
2023-04-19T04:15:01.114Z,6.59
2023-04-19T04:17:31.298Z,6.55
2023-04-19T04:20:01.454Z,6.12
2023-04-19T04:22:33.974Z,6.59
2023-04-19T04:25:06.796Z,6.32
2023-04-19T04:27:40.577Z,6.46
2023-04-19T04:30:15.626Z,6.42
2023-04-19T04:32:47.167Z,6.47
2023-04-19T04:35:17.891Z,6.43
2023-04-19T04:38:00.399Z,6.45
2023-04-19T04:40:32.888Z,6.36
2023-04-19T04:43:04.657Z,6.35
2023-04-19T04:45:36.080Z,6.37
2023-04-19T04:48:07.305Z,6.53
2023-04-19T04:50:37.139Z,6.53
2023-04-19T04:53:06.913Z,6.38
2023-04-19T04:55:39.569Z,6.38
2023-04-19T04:58:09.411Z,6.46
2023-04-19T05:00:52.628Z,6.32
2023-04-19T05:03:22.881Z,6.47
2023-04-19T05:05:57.908Z,6.35
2023-04-19T05:08:28.451Z,6.38
2023-04-19T05:11:06.432Z,6.50
2023-04-19T05:13:36.583Z,6.58
2023-04-19T05:16:07.354Z,6.74
2023-04-19T05:18:37.972Z,6.73
2023-04-19T05:21:10.610Z,6.93
2023-04-19T05:23:41.887Z,6.92
2023-04-19T05:26:15.660Z,6.99
2023-04-19T05:28:47.446Z,6.83
2023-04-19T05:31:25.026Z,6.85
2023-04-19T05:34:08.529Z,6.96
2023-04-19T05:36:38.292Z,6.99
2023-04-19T05:39:08.099Z,7.03
2023-04-19T05:41:40.758Z,7.04
2023-04-19T05:44:10.536Z,7.06
2023-04-19T05:46:40.621Z,6.93
2023-04-19T05:49:13.447Z,7.11
2023-04-19T05:52:02.285Z,7.03
2023-04-19T05:54:44.646Z,7.15
2023-04-19T05:57:17.079Z,7.24
2023-04-19T05:59:47.015Z,7.36
2023-04-19T06:02:20.437Z,7.36
2023-04-19T06:04:50.839Z,7.42
2023-04-19T06:07:31.090Z,7.39
2023-04-19T06:10:04.004Z,7.35
2023-04-19T06:12:36.423Z,7.54
2023-04-19T06:15:06.868Z,7.47
2023-04-19T06:17:37.138Z,7.33
2023-04-19T06:20:08.453Z,7.52
2023-04-19T06:22:38.416Z,7.83
2023-04-19T06:25:08.751Z,6.75
2023-04-19T06:27:41.105Z,8.04
2023-04-19T06:30:12.046Z,8.12
2023-04-19T06:32:42.644Z,8.14
2023-04-19T06:35:13.014Z,8.19
2023-04-19T06:37:42.788Z,8.27
2023-04-19T06:40:13.628Z,8.60
2023-04-19T06:42:45.994Z,8.49
2023-04-19T06:45:16.294Z,8.55
2023-04-19T06:47:46.260Z,8.69
2023-04-19T06:50:16.219Z,8.86
2023-04-19T06:52:46.013Z,9.14
2023-04-19T06:55:15.834Z,9.21
2023-04-19T06:57:48.176Z,8.60
2023-04-19T07:00:18.829Z,8.48
2023-04-19T07:02:48.711Z,8.74
2023-04-19T07:05:18.673Z,9.10
2023-04-19T07:07:48.421Z,8.91
2023-04-19T07:10:18.449Z,9.11
2023-04-19T07:12:50.812Z,9.10
2023-04-19T07:15:20.715Z,9.19
2023-04-19T07:17:50.455Z,8.83
2023-04-19T07:20:20.232Z,8.92
2023-04-19T07:22:50.062Z,8.99
2023-04-19T07:25:21.460Z,9.09
2023-04-19T07:27:55.635Z,9.21
2023-04-19T07:30:25.884Z,9.22
2023-04-19T07:32:55.844Z,9.36
2023-04-19T07:35:25.637Z,9.52
2023-04-19T07:37:55.414Z,9.41
2023-04-19T07:40:25.154Z,9.49
2023-04-19T07:42:58.428Z,9.13
2023-04-19T07:45:28.197Z,9.70
2023-04-19T07:47:58.540Z,9.62
2023-04-19T07:50:28.898Z,9.81
2023-04-19T07:52:58.728Z,9.71
2023-04-19T07:55:28.508Z,9.61
2023-04-19T07:58:00.881Z,9.59
2023-04-19T08:00:31.721Z,9.94
2023-04-19T08:03:01.658Z,9.84
2023-04-19T08:05:31.665Z,9.85
2023-04-19T08:08:01.589Z,9.82
2023-04-19T08:10:33.288Z,9.92
2023-04-19T08:13:06.730Z,10.00
2023-04-19T08:16:18.073Z,10.35
2023-04-19T08:18:27.189Z,10.26
2023-04-19T08:20:57.032Z,10.30
2023-04-19T08:23:34.633Z,10.33
2023-04-19T08:26:08.029Z,10.55
2023-04-19T08:28:40.418Z,10.32
2023-04-19T08:31:10.460Z,10.56
2023-04-19T08:33:40.294Z,10.82
2023-04-19T08:36:12.593Z,10.78
2023-04-19T08:38:46.615Z,10.67
2023-04-19T08:41:21.756Z,10.78
2023-04-19T08:43:55.265Z,10.61
2023-04-19T08:46:26.984Z,10.62
2023-04-19T08:48:57.745Z,11.08
2023-04-19T08:51:28.970Z,11.15
2023-04-19T08:53:59.679Z,11.04
2023-04-19T08:56:35.394Z,11.27
2023-04-19T08:59:18.070Z,11.29
2023-04-19T09:01:49.494Z,11.06
2023-04-19T09:04:34.505Z,11.54
2023-04-19T09:07:06.299Z,11.49
2023-04-19T09:09:42.908Z,11.28
2023-04-19T09:12:20.380Z,11.62
2023-04-19T09:17:25.501Z,11.70
2023-04-19T09:19:55.339Z,11.88
2023-04-19T09:22:25.187Z,11.99
2023-04-19T09:27:31.110Z,12.31
2023-04-19T09:30:10.822Z,12.36
2023-04-19T09:32:51.567Z,12.36
2023-04-19T09:35:21.415Z,12.46
2023-04-19T09:38:06.976Z,12.57
2023-04-19T09:40:37.409Z,12.59
2023-04-19T09:43:29.069Z,12.60
2023-04-19T09:45:59.786Z,12.54
2023-04-19T09:48:29.621Z,12.58
2023-04-19T09:51:04.995Z,12.63
2023-04-19T09:53:37.466Z,12.79
2023-04-19T09:56:07.985Z,12.71
2023-04-19T09:58:49.646Z,12.77
2023-04-19T10:01:23.968Z,12.59
2023-04-19T10:03:55.882Z,12.73
2023-04-19T10:06:45.678Z,12.90
2023-04-19T10:09:17.353Z,12.85
2023-04-19T10:11:54.450Z,13.21
2023-04-19T10:14:28.768Z,13.08
2023-04-19T10:17:01.244Z,12.99
2023-04-19T10:19:31.888Z,13.04
2023-04-19T10:22:05.464Z,12.82
2023-04-19T10:24:36.331Z,13.03
2023-04-19T10:27:12.491Z,13.30
2023-04-19T10:29:58.442Z,13.33
2023-04-19T10:32:33.555Z,13.23
2023-04-19T10:35:05.460Z,13.38
2023-04-19T10:37:35.479Z,13.52
2023-04-19T10:40:05.965Z,13.44
2023-04-19T10:43:20.603Z,13.31
2023-04-19T10:45:51.114Z,13.27
2023-04-19T10:48:44.305Z,13.56
2023-04-19T10:51:19.628Z,13.56
2023-04-19T10:53:54.391Z,13.39
2023-04-19T10:56:45.985Z,13.68
2023-04-19T10:59:24.952Z,13.56
2023-04-19T11:01:57.083Z,13.73
2023-04-19T11:05:04.528Z,13.78
2023-04-19T11:07:45.227Z,14.00
2023-04-19T11:10:15.162Z,14.20
2023-04-19T11:12:46.611Z,14.21
2023-04-19T11:15:16.441Z,14.38
2023-04-19T11:17:46.380Z,14.33
2023-04-19T11:20:18.870Z,14.34
2023-04-19T11:22:49.604Z,14.36
2023-04-19T11:25:21.168Z,14.52
2023-04-19T11:27:54.149Z,14.51
2023-04-19T11:30:26.145Z,14.29
2023-04-19T11:32:57.548Z,14.31
2023-04-19T11:35:31.618Z,14.34
2023-04-19T11:38:02.229Z,14.41
2023-04-19T11:40:32.292Z,14.39
2023-04-19T11:43:03.720Z,14.23
2023-04-19T11:45:39.261Z,14.35
2023-04-19T11:48:16.454Z,14.46
2023-04-19T11:50:50.207Z,14.46
2023-04-19T11:53:21.729Z,14.23
2023-04-19T11:55:54.020Z,14.34
2023-04-19T11:58:33.248Z,14.41
2023-04-19T12:01:07.126Z,14.50
2023-04-19T12:03:37.779Z,14.48
2023-04-19T12:06:15.325Z,14.24
2023-04-19T12:08:47.365Z,14.61
2023-04-19T12:11:19.009Z,14.62
2023-04-19T12:13:48.817Z,14.51
2023-04-19T12:16:30.082Z,14.44
2023-04-19T12:18:59.901Z,14.55
2023-04-19T12:21:34.477Z,14.71
2023-04-19T12:24:04.799Z,14.68
2023-04-19T12:26:34.792Z,14.48
2023-04-19T12:29:06.055Z,14.69
2023-04-19T12:31:36.148Z,14.71
2023-04-19T12:34:06.047Z,14.81
2023-04-19T12:36:38.452Z,14.70
2023-04-19T12:39:08.742Z,14.50
2023-04-19T12:41:38.510Z,14.49
2023-04-19T12:44:08.892Z,14.86
2023-04-19T12:46:39.527Z,14.88
2023-04-19T12:49:09.653Z,14.78
2023-04-19T12:51:42.816Z,14.84
2023-04-19T12:54:12.615Z,14.76
2023-04-19T12:56:42.396Z,14.77
2023-04-19T12:59:12.218Z,14.79
2023-04-19T13:01:42.013Z,14.91
2023-04-19T13:04:12.249Z,14.79
2023-04-19T13:06:46.079Z,15.07
2023-04-19T13:09:15.904Z,15.11
2023-04-19T13:11:45.681Z,15.30
2023-04-19T13:14:15.625Z,15.21
2023-04-19T13:16:45.739Z,15.23
2023-04-19T13:19:15.976Z,15.42
2023-04-19T13:21:48.458Z,15.34
2023-04-19T13:24:18.466Z,15.18
2023-04-19T13:26:48.909Z,15.43
2023-04-19T13:29:18.715Z,15.11
2023-04-19T13:31:49.649Z,15.10
2023-04-19T13:34:19.557Z,14.94
2023-04-19T13:36:51.923Z,14.90
2023-04-19T13:39:21.852Z,15.04
2023-04-19T13:41:51.782Z,15.28
2023-04-19T13:44:21.559Z,15.38
2023-04-19T13:46:51.367Z,15.18
2023-04-19T13:49:21.419Z,14.51
2023-04-19T13:51:53.784Z,14.17
2023-04-19T13:54:23.737Z,14.33
2023-04-19T13:56:53.483Z,14.38
2023-04-19T13:59:26.321Z,14.42
2023-04-19T14:01:56.967Z,14.47
2023-04-19T14:04:27.309Z,14.52
2023-04-19T14:06:59.735Z,14.56
2023-04-19T14:09:29.527Z,14.57
2023-04-19T14:11:59.299Z,14.65
2023-04-19T14:14:31.498Z,14.72
2023-04-19T14:17:02.123Z,14.78
2023-04-19T14:19:32.054Z,14.58
2023-04-19T14:22:04.468Z,14.69
2023-04-19T14:24:34.216Z,14.43
2023-04-19T14:27:10.922Z,14.38
2023-04-19T14:29:41.577Z,14.19
2023-04-19T14:32:25.052Z,14.08
2023-04-19T14:34:57.405Z,13.84
2023-04-19T14:37:29.815Z,14.02
2023-04-19T14:39:59.587Z,13.98
2023-04-19T14:42:29.321Z,14.00
2023-04-19T14:45:01.164Z,13.91
2023-04-19T14:47:31.055Z,13.99
2023-04-19T14:50:00.949Z,13.87
2023-04-19T14:52:33.342Z,13.81
2023-04-19T14:55:03.144Z,13.87
2023-04-19T14:57:33.046Z,14.18
2023-04-19T15:00:03.045Z,14.10
2023-04-19T15:02:34.163Z,14.12
2023-04-19T15:05:04.313Z,14.13
2023-04-19T15:07:36.817Z,14.17
2023-04-19T15:10:07.146Z,13.89
2023-04-19T15:12:36.968Z,14.18
2023-04-19T15:15:07.785Z,14.17
2023-04-19T15:17:37.981Z,14.54
2023-04-19T15:20:09.030Z,14.50
2023-04-19T15:22:41.498Z,13.82
2023-04-19T15:25:12.336Z,14.07
2023-04-19T15:27:42.513Z,13.98
2023-04-19T15:30:13.323Z,13.60
2023-04-19T15:32:44.636Z,13.71
2023-04-19T15:35:14.737Z,13.81
2023-04-19T15:37:48.346Z,14.04
2023-04-19T15:40:18.188Z,14.09
2023-04-19T15:42:48.085Z,13.97
2023-04-19T15:45:18.950Z,14.21
2023-04-19T15:47:48.760Z,14.08
2023-04-19T15:50:18.541Z,14.24
2023-04-19T15:52:50.874Z,14.33
2023-04-19T15:55:20.983Z,14.18
2023-04-19T15:57:50.746Z,13.86
2023-04-19T16:00:21.695Z,13.66
2023-04-19T16:02:51.914Z,13.65
2023-04-19T16:05:25.093Z,13.59
2023-04-19T16:08:07.761Z,13.49
2023-04-19T16:10:39.134Z,13.36
2023-04-19T16:13:09.401Z,13.62
2023-04-19T16:15:39.307Z,13.69
2023-04-19T16:18:09.204Z,13.64
2023-04-19T16:20:39.630Z,13.58
2023-04-19T16:23:12.212Z,13.48
2023-04-19T16:25:42.050Z,13.67
2023-04-19T16:28:11.866Z,13.65
2023-04-19T16:30:41.706Z,13.67
2023-04-19T16:33:11.558Z,13.37
2023-04-19T16:35:41.454Z,13.47
2023-04-19T16:38:14.093Z,13.57
2023-04-19T16:40:46.437Z,13.49
2023-04-19T16:43:16.310Z,13.48
2023-04-19T16:45:46.171Z,13.39
2023-04-19T16:48:16.222Z,13.25
2023-04-19T16:50:46.553Z,13.29
2023-04-19T16:53:18.883Z,13.36
2023-04-19T16:55:48.643Z,13.36
2023-04-19T16:58:18.448Z,13.55
2023-04-19T17:00:48.461Z,13.54
2023-04-19T17:03:18.858Z,13.63
2023-04-19T17:05:48.769Z,13.49
2023-04-19T17:08:22.373Z,13.30
2023-04-19T17:10:52.395Z,13.09
2023-04-19T17:13:22.222Z,13.03
2023-04-19T17:15:52.107Z,12.85
2023-04-19T17:18:22.357Z,12.79
2023-04-19T17:20:52.333Z,12.67
2023-04-19T17:23:24.773Z,12.64
2023-04-19T17:25:54.526Z,12.72
2023-04-19T17:28:24.394Z,12.47
2023-04-19T17:30:54.177Z,12.81
2023-04-19T17:33:23.971Z,12.66
2023-04-19T17:35:53.840Z,12.68
2023-04-19T17:38:26.322Z,12.54
2023-04-19T17:40:56.096Z,12.57
2023-04-19T17:43:26.396Z,12.56
2023-04-19T17:45:56.209Z,12.45
2023-04-19T17:48:26.101Z,12.40
2023-04-19T17:50:56.278Z,12.43
2023-04-19T17:53:28.781Z,12.45
2023-04-19T17:55:58.920Z,12.47
2023-04-19T17:58:28.825Z,12.52
2023-04-19T18:00:58.835Z,12.54
2023-04-19T18:03:28.734Z,12.46
2023-04-19T18:05:58.518Z,12.41
2023-04-19T18:08:30.872Z,12.47
2023-04-19T18:11:00.623Z,12.42
2023-04-19T18:13:31.448Z,12.16
2023-04-19T18:16:01.248Z,12.42
2023-04-19T18:18:31.114Z,12.46
2023-04-19T18:21:01.122Z,12.38
2023-04-19T18:23:33.617Z,12.51
2023-04-19T18:26:04.899Z,12.44
2023-04-19T18:28:35.833Z,12.35
2023-04-19T18:31:05.654Z,12.22
2023-04-19T18:33:35.533Z,12.06
2023-04-19T18:36:05.282Z,12.09
2023-04-19T18:38:37.903Z,12.07
2023-04-19T18:41:07.628Z,12.11
2023-04-19T18:43:37.409Z,12.00
2023-04-19T18:46:07.158Z,12.00
2023-04-19T18:48:36.965Z,11.91
2023-04-19T18:51:07.345Z,11.84
2023-04-19T18:53:40.026Z,11.82
2023-04-19T18:56:10.245Z,11.80
2023-04-19T18:58:40.090Z,11.84
2023-04-19T19:01:12.252Z,11.63
2023-04-19T19:06:16.124Z,11.51
2023-04-19T19:08:50.447Z,11.61
2023-04-19T19:11:46.957Z,11.28
2023-04-19T19:14:10.196Z,11.37
2023-04-19T19:16:50.888Z,11.26
2023-04-19T19:19:22.794Z,11.20
2023-04-19T19:21:52.908Z,10.99
2023-04-19T19:24:25.616Z,11.11
2023-04-19T19:26:55.635Z,11.17
2023-04-19T19:29:25.621Z,11.14
2023-04-19T19:31:55.877Z,11.20
2023-04-19T19:34:30.207Z,11.05
2023-04-19T19:37:00.489Z,11.19
2023-04-19T19:39:32.930Z,11.18
2023-04-19T19:42:06.447Z,11.13
2023-04-19T19:44:36.781Z,11.22
2023-04-19T19:47:10.256Z,11.21
2023-04-19T19:50:00.808Z,11.01
2023-04-19T19:52:32.155Z,11.00
2023-04-19T19:55:04.674Z,10.98
2023-04-19T20:02:55.028Z,10.88
2023-04-19T20:05:26.390Z,10.94
2023-04-19T20:08:08.489Z,10.81
2023-04-19T20:10:43.428Z,10.78
2023-04-19T20:13:13.398Z,10.71
2023-04-19T20:15:47.343Z,10.64
2023-04-19T20:18:17.185Z,10.77
2023-04-19T20:20:46.998Z,10.80
2023-04-19T20:23:18.168Z,10.83
2023-04-19T20:25:52.079Z,10.48
2023-04-19T20:28:21.918Z,10.50
2023-04-19T20:30:54.036Z,10.45
2023-04-19T20:33:23.831Z,10.19
2023-04-19T20:35:54.236Z,10.10
2023-04-19T20:38:24.555Z,10.36
2023-04-19T20:40:57.215Z,10.34
2023-04-19T20:43:27.129Z,10.50
2023-04-19T20:45:56.947Z,10.58
2023-04-19T20:48:26.848Z,10.57
2023-04-19T20:50:56.607Z,10.42
2023-04-19T20:53:26.439Z,10.70
2023-04-19T20:55:58.719Z,10.73
2023-04-19T20:58:28.613Z,10.54
2023-04-19T21:00:58.553Z,10.66
2023-04-19T21:03:28.552Z,10.70
2023-04-19T21:05:58.413Z,10.56
2023-04-19T21:08:28.167Z,10.60
2023-04-19T21:11:00.832Z,10.69
2023-04-19T21:13:30.642Z,10.72
2023-04-19T21:16:00.718Z,10.61
2023-04-19T21:18:31.135Z,10.41
2023-04-19T21:21:01.402Z,10.42
2023-04-19T21:23:31.258Z,10.33
2023-04-19T21:26:04.689Z,10.44
2023-04-19T21:28:36.868Z,10.42
2023-04-19T21:31:06.709Z,10.35
2023-04-19T21:33:36.565Z,10.21
2023-04-19T21:36:06.960Z,10.30
2023-04-19T21:38:37.214Z,10.07
2023-04-19T21:41:11.012Z,10.04
2023-04-19T21:43:40.840Z,9.87
2023-04-19T21:46:10.612Z,10.07
2023-04-19T21:48:40.697Z,10.03
2023-04-19T21:51:10.589Z,10.10
2023-04-19T21:53:40.316Z,10.08
2023-04-19T21:56:12.789Z,10.25
2023-04-19T21:58:42.621Z,10.06
2023-04-19T22:01:12.539Z,9.96
2023-04-19T22:03:42.971Z,10.10
2023-04-19T22:06:14.090Z,10.00
2023-04-19T22:08:44.346Z,9.90
2023-04-19T22:11:16.708Z,9.96
2023-04-19T22:13:47.215Z,9.97
2023-04-19T22:16:17.214Z,9.87
2023-04-19T22:18:46.986Z,9.89
2023-04-19T22:21:16.883Z,10.01
2023-04-19T22:23:46.656Z,9.73
2023-04-19T22:26:19.039Z,10.05
2023-04-19T22:28:48.785Z,9.91
2023-04-19T22:31:18.516Z,10.05
2023-04-19T22:33:48.396Z,10.05
2023-04-19T22:36:18.180Z,10.06
2023-04-19T22:38:48.031Z,9.99
2023-04-19T22:41:20.477Z,9.87
2023-04-19T22:43:50.234Z,10.10
2023-04-19T22:46:20.090Z,10.12
2023-04-19T22:48:50.741Z,10.10
2023-04-19T22:51:20.725Z,10.01
2023-04-19T22:53:50.732Z,10.05
2023-04-19T22:56:23.053Z,9.93
2023-04-19T22:58:52.836Z,9.96
2023-04-19T23:01:22.578Z,9.98
2023-04-19T23:03:52.423Z,9.90
2023-04-19T23:06:22.184Z,9.94
2023-04-19T23:08:51.899Z,10.01
2023-04-19T23:11:25.055Z,9.88
2023-04-19T23:13:55.698Z,9.93
2023-04-19T23:16:26.254Z,10.06
2023-04-19T23:18:56.941Z,10.07
2023-04-19T23:21:26.694Z,10.01
2023-04-19T23:23:56.440Z,9.89
2023-04-19T23:26:30.170Z,9.64
2023-04-19T23:28:59.951Z,9.53
2023-04-19T23:31:29.738Z,9.62
2023-04-19T23:33:59.490Z,9.60
2023-04-19T23:36:29.242Z,9.51
2023-04-19T23:38:59.000Z,9.53
2023-04-19T23:41:31.330Z,9.40
2023-04-19T23:44:01.201Z,9.22
2023-04-19T23:46:31.086Z,9.29
2023-04-19T23:49:00.871Z,9.21
2023-04-19T23:51:30.974Z,9.32
2023-04-19T23:54:00.781Z,9.24
2023-04-19T23:56:33.111Z,9.22
2023-04-19T23:59:02.828Z,9.10
